Time;durP1;ratioP1;P1;durP2;ratioP2;P2;SDS_P1;SDS_P2;PMS_P1;PMS_P2;Temp;Humidity;BMP_temperature;BMP_pressure;BME280_temperature;BME280_humidity;BME280_pressure;Samples;Min_cycle;Max_cycle;Signal;HPM_P1;HPM_P2
2023/08/24 00:04:18;;;;;;;10.35;5.93;;;;;18.20;101259.00;;;;10089818;28;20324;-78
2023/08/24 00:09:20;;;;;;;9.38;6.60;;;;;18.20;101262.00;;;;10085897;28;20242;-77
2023/08/24 00:14:22;;;;;;;10.88;7.10;;;;;18.20;101243.00;;;;10069096;28;20769;-78
2023/08/24 00:19:23;;;;;;;10.90;6.25;;;;;18.10;101240.00;;;;10088192;28;20953;-77
2023/08/24 00:24:24;;;;;;;14.50;7.47;;;;;18.10;101235.00;;;;10088657;28;20214;-78
2023/08/24 00:29:25;;;;;;;12.73;6.75;;;;;18.10;101241.00;;;;10084413;28;21067;-78
2023/08/24 00:34:27;;;;;;;9.80;7.20;;;;;18.10;101224.00;;;;10089579;28;20202;-78
2023/08/24 00:39:28;;;;;;;10.80;6.68;;;;;18.20;101202.00;;;;10089003;28;20310;-78
2023/08/24 00:44:30;;;;;;;9.70;7.22;;;;;18.30;101188.00;;;;10067753;28;20233;-78
2023/08/24 00:49:31;;;;;;;9.98;7.13;;;;;18.30;101194.00;;;;10066584;28;22309;-77
2023/08/24 00:54:33;;;;;;;11.57;7.05;;;;;18.30;101192.00;;;;10069717;28;20361;-78
2023/08/24 00:59:35;;;;;;;10.70;7.13;;;;;18.40;101224.00;;;;10083376;28;20754;-78
2023/08/24 01:04:36;;;;;;;9.80;7.13;;;;;18.40;101241.00;;;;10092949;28;20225;-78
2023/08/24 01:09:39;;;;;;;9.93;6.88;;;;;18.50;101237.00;;;;10089691;28;20226;-78
2023/08/24 01:15:03;;;;;;;10.27;7.22;;;;;18.50;101236.00;;;;10074957;28;20210;-78
2023/08/24 01:20:06;;;;;;;13.43;6.75;;;;;18.60;101236.00;;;;10091607;28;21212;-78
2023/08/24 01:25:15;;;;;;;10.38;6.90;;;;;18.70;101211.00;;;;10079438;28;20246;-78
2023/08/24 01:30:17;;;;;;;8.23;6.30;;;;;18.70;101220.00;;;;10076168;28;20293;-78
2023/08/24 01:35:19;;;;;;;9.73;6.63;;;;;18.70;101201.00;;;;10099784;28;20235;-78
2023/08/24 01:40:38;;;;;;;15.82;6.63;;;;;18.70;101202.00;;;;10088417;28;20234;-79
2023/08/24 01:45:42;;;;;;;10.68;7.28;;;;;18.70;101191.00;;;;10090386;28;20300;-77
2023/08/24 01:50:44;;;;;;;10.65;7.00;;;;;18.70;101193.00;;;;10076823;28;20247;-78
2023/08/24 01:55:46;;;;;;;11.93;7.03;;;;;18.60;101178.00;;;;10113614;28;20206;-79
2023/08/24 02:00:47;;;;;;;11.45;7.40;;;;;18.60;101173.00;;;;10088405;28;21201;-77
2023/08/24 02:05:49;;;;;;;11.25;8.00;;;;;18.60;101189.00;;;;10086545;28;20218;-79
2023/08/24 02:10:50;;;;;;;13.23;7.28;;;;;18.60;101186.00;;;;10071902;28;20878;-78
2023/08/24 02:16:04;;;;;;;17.60;8.38;;;;;18.60;101154.00;;;;10076163;28;20492;-79
2023/08/24 02:21:11;;;;;;;14.38;9.15;;;;;18.40;101122.00;;;;10088425;28;22009;-79
2023/08/24 02:26:12;;;;;;;16.25;9.27;;;;;18.00;101092.00;;;;10087115;28;20209;-79
2023/08/24 02:31:15;;;;;;;14.73;9.45;;;;;17.80;101075.00;;;;10081384;28;21581;-78
2023/08/24 02:36:16;;;;;;;16.17;9.80;;;;;17.70;101051.00;;;;10090500;28;20234;-79
2023/08/24 02:41:18;;;;;;;12.77;9.68;;;;;17.60;101046.00;;;;10100265;28;20526;-79
2023/08/24 02:46:21;;;;;;;16.50;10.45;;;;;17.60;101047.00;;;;10090479;28;20301;-78
2023/08/24 02:51:23;;;;;;;10.75;9.60;;;;;17.60;101059.00;;;;10095219;28;20218;-77
2023/08/24 02:56:24;;;;;;;13.13;10.63;;;;;17.70;101051.00;;;;10100389;28;20264;-77
2023/08/24 03:01:26;;;;;;;11.90;10.15;;;;;17.70;101037.00;;;;10074986;28;20290;-78
2023/08/24 03:06:27;;;;;;;13.05;10.18;;;;;17.70;101032.00;;;;10088519;28;20230;-78
2023/08/24 03:11:29;;;;;;;14.25;10.52;;;;;17.70;101037.00;;;;10094128;28;20899;-78
2023/08/24 03:16:30;;;;;;;14.65;10.05;;;;;17.70;101018.00;;;;10085898;28;20863;-77
2023/08/24 03:21:31;;;;;;;16.58;11.32;;;;;17.60;101009.00;;;;10087107;28;21336;-77
2023/08/24 03:26:33;;;;;;;12.30;10.30;;;;;17.50;100998.00;;;;10092106;28;20883;-79
2023/08/24 03:31:34;;;;;;;14.90;10.43;;;;;17.50;100990.00;;;;10075259;28;20625;-78
2023/08/24 03:36:35;;;;;;;12.70;10.02;;;;;17.40;100984.00;;;;10093441;28;20225;-77
2023/08/24 03:41:37;;;;;;;15.32;10.85;;;;;17.30;100966.00;;;;10072707;28;20233;-78
2023/08/24 03:46:38;;;;;;;14.20;10.52;;;;;17.30;100960.00;;;;10092564;28;20206;-78
2023/08/24 03:51:39;;;;;;;16.25;12.10;;;;;17.20;100956.00;;;;10099866;28;20226;-77
2023/08/24 03:56:41;;;;;;;17.60;11.52;;;;;17.20;100944.00;;;;10070013;28;20230;-78
2023/08/24 04:01:42;;;;;;;15.45;9.93;;;;;17.10;100949.00;;;;10067195;28;20296;-78
2023/08/24 04:06:43;;;;;;;15.90;11.40;;;;;17.10;100954.00;;;;10075173;28;20212;-78
2023/08/24 04:11:45;;;;;;;13.63;10.32;;;;;17.00;100957.00;;;;10083070;28;20309;-77
2023/08/24 04:16:47;;;;;;;15.70;11.93;;;;;17.00;100959.00;;;;10092656;28;21127;-77
2023/08/24 04:21:49;;;;;;;15.52;11.52;;;;;17.00;100969.00;;;;10075921;28;20217;-77
2023/08/24 04:26:50;;;;;;;20.30;10.85;;;;;17.00;100958.00;;;;10125789;28;20222;-78
2023/08/24 04:31:51;;;;;;;13.82;10.90;;;;;16.90;100960.00;;;;10103410;28;20301;-77
2023/08/24 04:36:54;;;;;;;16.85;11.25;;;;;16.80;100963.00;;;;10075077;28;20358;-78
2023/08/24 04:41:55;;;;;;;15.10;11.40;;;;;16.80;100956.00;;;;10092566;28;20206;-77
2023/08/24 04:46:57;;;;;;;15.80;10.82;;;;;16.70;100959.00;;;;10092434;28;20218;-77
2023/08/24 04:51:59;;;;;;;16.38;11.52;;;;;16.70;100966.00;;;;10127288;28;20354;-77
2023/08/24 04:57:00;;;;;;;19.23;11.82;;;;;16.70;100972.00;;;;10120163;28;20216;-77
2023/08/24 05:02:01;;;;;;;16.50;12.65;;;;;16.80;100962.00;;;;10128654;28;20242;-78
2023/08/24 05:07:03;;;;;;;14.23;12.18;;;;;16.90;100945.00;;;;10114781;28;20294;-78
2023/08/24 05:12:04;;;;;;;19.30;11.13;;;;;17.00;100944.00;;;;10090628;28;20211;-78
2023/08/24 05:17:06;;;;;;;12.85;11.55;;;;;17.10;100938.00;;;;10066638;28;20228;-77
2023/08/24 05:22:07;;;;;;;12.27;10.43;;;;;17.30;100913.00;;;;10077116;28;20528;-78
2023/08/24 05:27:12;;;;;;;13.00;10.32;;;;;17.50;100895.00;;;;10108137;28;20258;-77
2023/08/24 05:32:13;;;;;;;12.77;11.00;;;;;17.80;100885.00;;;;10127768;28;20233;-77
2023/08/24 05:37:15;;;;;;;14.80;10.23;;;;;18.10;100892.00;;;;10127262;28;20222;-78
2023/08/24 05:42:16;;;;;;;12.25;9.32;;;;;18.40;100887.00;;;;10115655;28;20306;-76
2023/08/24 05:47:17;;;;;;;11.60;9.30;;;;;18.70;100877.00;;;;10118684;28;20229;-78
2023/08/24 05:52:19;;;;;;;13.65;9.40;;;;;18.90;100869.00;;;;10085084;28;20210;-77
2023/08/24 05:57:20;;;;;;;14.32;9.38;;;;;19.00;100871.00;;;;10123450;28;20230;-77
2023/08/24 06:02:21;;;;;;;13.32;9.68;;;;;19.10;100874.00;;;;10208170;28;20711;-76
2023/08/24 06:07:23;;;;;;;13.02;9.40;;;;;19.40;100872.00;;;;10210514;28;20208;-77
2023/08/24 06:12:25;;;;;;;14.45;9.80;;;;;19.60;100871.00;;;;10203619;28;20282;-77
2023/08/24 06:17:26;;;;;;;13.77;9.30;;;;;19.90;100877.00;;;;10209828;28;20628;-76
2023/08/24 06:22:27;;;;;;;14.25;9.73;;;;;20.30;100868.00;;;;10171975;28;20361;-78
2023/08/24 06:27:31;;;;;;;12.70;9.73;;;;;20.70;100878.00;;;;10080653;28;20225;-77
2023/08/24 06:32:32;;;;;;;10.77;9.27;;;;;21.60;100861.00;;;;10089674;28;20277;-79
2023/08/24 06:37:34;;;;;;;13.27;9.10;;;;;22.30;100855.00;;;;10083538;28;20595;-79
2023/08/24 06:42:35;;;;;;;12.23;8.68;;;;;22.60;100851.00;;;;10097281;28;20202;-77
2023/08/24 06:47:37;;;;;;;12.50;8.52;;;;;22.70;100855.00;;;;10063348;28;20238;-78
2023/08/24 06:52:38;;;;;;;9.80;8.48;;;;;22.80;100867.00;;;;10095120;28;20210;-78
2023/08/24 06:57:40;;;;;;;10.38;8.25;;;;;23.00;100869.00;;;;10090181;28;20321;-78
2023/08/24 07:02:41;;;;;;;9.13;7.95;;;;;23.10;100859.00;;;;10099847;28;20593;-78
2023/08/24 07:07:44;;;;;;;9.18;8.27;;;;;23.20;100856.00;;;;10074399;28;20258;-78
2023/08/24 07:12:46;;;;;;;14.38;8.00;;;;;23.80;100863.00;;;;10066665;28;20214;-77
2023/08/24 07:17:47;;;;;;;12.57;7.78;;;;;24.30;100860.00;;;;10089199;28;20317;-76
2023/08/24 07:22:50;;;;;;;11.75;7.38;;;;;24.80;100869.00;;;;10088063;28;20218;-78
2023/08/24 07:27:54;;;;;;;11.77;7.32;;;;;24.60;100874.00;;;;10078823;28;20257;-77
2023/08/24 07:32:55;;;;;;;13.20;7.18;;;;;24.30;100877.00;;;;10065922;28;20206;-78
2023/08/24 07:37:57;;;;;;;10.90;7.40;;;;;24.30;100887.00;;;;10081713;28;20229;-79
2023/08/24 07:43:00;;;;;;;10.40;7.15;;;;;24.30;100870.00;;;;10060297;28;20224;-78
2023/08/24 07:48:02;;;;;;;9.52;7.10;;;;;24.20;100862.00;;;;10081708;28;20218;-78
2023/08/24 07:53:04;;;;;;;11.40;7.70;;;;;24.20;100872.00;;;;10084707;28;20214;-78
2023/08/24 07:58:06;;;;;;;10.32;7.10;;;;;24.30;100881.00;;;;10062777;28;21903;-77
2023/08/24 08:03:07;;;;;;;12.55;7.80;;;;;24.30;100872.00;;;;9998134;28;20267;-77
2023/08/24 08:08:08;;;;;;;12.52;7.30;;;;;24.30;100854.00;;;;10022155;28;20549;-77
2023/08/24 08:13:11;;;;;;;11.15;7.50;;;;;24.20;100873.00;;;;10027956;28;20712;-78
2023/08/24 08:18:12;;;;;;;10.70;7.30;;;;;24.30;100837.00;;;;10089217;28;20232;-78
2023/08/24 08:23:14;;;;;;;10.13;7.72;;;;;24.40;100835.00;;;;10057868;28;20214;-79
2023/08/24 08:28:15;;;;;;;12.43;7.25;;;;;24.50;100844.00;;;;10069040;28;20257;-79
2023/08/24 08:33:18;;;;;;;15.93;7.85;;;;;24.60;100831.00;;;;10081331;28;20225;-79
2023/08/24 08:38:21;;;;;;;9.98;7.60;;;;;24.70;100827.00;;;;10120334;28;20238;-78
2023/08/24 08:43:23;;;;;;;13.52;7.88;;;;;24.80;100823.00;;;;10088587;28;20503;-78
2023/08/24 08:48:25;;;;;;;9.90;7.28;;;;;25.00;100809.00;;;;10090384;28;20344;-78
2023/08/24 08:53:26;;;;;;;10.80;7.00;;;;;25.50;100801.00;;;;10092739;28;20258;-78
2023/08/24 08:58:28;;;;;;;13.20;7.28;;;;;26.00;100816.00;;;;10066428;28;20310;-78
2023/08/24 09:03:31;;;;;;;9.32;6.20;;;;;26.30;100825.00;;;;10090835;28;20436;-79
2023/08/24 09:08:34;;;;;;;12.15;6.80;;;;;26.30;100844.00;;;;10107698;28;20965;-78
2023/08/24 09:13:35;;;;;;;9.10;6.15;;;;;26.10;100848.00;;;;10087338;28;20209;-77
2023/08/24 09:18:38;;;;;;;8.23;6.25;;;;;25.60;100858.00;;;;10086798;28;20812;-78
2023/08/24 09:23:45;;;;;;;10.82;6.63;;;;;25.00;100876.00;;;;10093180;28;20631;-79
2023/08/24 09:28:47;;;;;;;9.75;5.70;;;;;24.70;100882.00;;;;10081413;28;21449;-77
2023/08/24 09:33:48;;;;;;;9.52;6.55;;;;;24.50;100918.00;;;;10087441;28;20206;-77
2023/08/24 09:38:50;;;;;;;10.27;6.80;;;;;24.00;100961.00;;;;10056189;28;20612;-77
2023/08/24 09:43:51;;;;;;;8.77;7.07;;;;;23.20;101058.00;;;;10099025;28;20210;-79
2023/08/24 09:48:58;;;;;;;16.27;7.30;;;;;22.70;101100.00;;;;10123336;28;20208;-78
2023/08/24 09:54:06;;;;;;;16.83;6.28;;;;;21.80;101089.00;;;;10120181;28;21830;-78
2023/08/24 09:59:18;;;;;;;9.85;6.03;;;;;21.20;101039.00;;;;10099522;28;20492;-76
2023/08/24 10:04:24;;;;;;;8.52;5.45;;;;;21.00;101020.00;;;;10128600;28;20221;-77
2023/08/24 10:09:37;;;;;;;9.07;5.35;;;;;20.80;101024.00;;;;10111686;28;20210;-78
2023/08/24 10:14:53;;;;;;;9.98;5.43;;;;;20.50;100990.00;;;;10123426;28;20293;-79
2023/08/24 10:19:56;;;;;;;11.07;6.20;;;;;20.30;100948.00;;;;10101530;28;20221;-78
2023/08/24 10:24:59;;;;;;;12.75;7.10;;;;;20.20;100934.00;;;;10102910;28;20217;-79
2023/08/24 10:30:00;;;;;;;15.18;7.43;;;;;20.20;100903.00;;;;10125620;28;21816;-79
2023/08/24 10:35:02;;;;;;;9.70;6.25;;;;;20.30;100834.00;;;;10098723;28;20941;-78
2023/08/24 10:40:04;;;;;;;8.73;6.35;;;;;20.50;100807.00;;;;10097212;28;20422;-77
2023/08/24 10:45:07;;;;;;;10.95;7.78;;;;;20.70;100755.00;;;;10121036;28;20210;-77
2023/08/24 10:50:09;;;;;;;12.80;7.18;;;;;21.00;100728.00;;;;10121628;28;20605;-78
2023/08/24 10:55:26;;;;;;;8.60;6.82;;;;;21.60;100716.00;;;;10112867;28;20269;-77
2023/08/24 11:00:29;;;;;;;9.75;6.57;;;;;22.60;100692.00;;;;10083349;28;20229;-77
2023/08/24 11:05:31;;;;;;;11.07;7.10;;;;;23.00;100665.00;;;;10081720;28;20341;-77
2023/08/24 11:10:42;;;;;;;7.57;5.35;;;;;23.10;100647.00;;;;10125156;28;20222;-77
2023/08/24 11:15:46;;;;;;;7.60;5.88;;;;;23.50;100681.00;;;;10104205;28;20227;-77
2023/08/24 11:20:50;;;;;;;9.70;6.28;;;;;23.80;100674.00;;;;10103998;28;20222;-76
2023/08/24 11:25:57;;;;;;;10.40;6.40;;;;;23.90;100646.00;;;;10102169;28;20938;-77
2023/08/24 11:30:59;;;;;;;7.78;6.03;;;;;24.00;100680.00;;;;10118082;28;20226;-76
2023/08/24 11:36:03;;;;;;;8.05;5.57;;;;;24.00;100677.00;;;;10116356;28;20210;-76
2023/08/24 11:41:12;;;;;;;7.55;5.68;;;;;23.90;100704.00;;;;10124172;28;20314;-78
2023/08/24 11:46:18;;;;;;;8.48;6.10;;;;;24.10;100727.00;;;;10121282;28;21896;-77
2023/08/24 11:51:19;;;;;;;8.20;5.22;;;;;23.90;100743.00;;;;10109134;28;20322;-78
2023/08/24 11:56:43;;;;;;;6.38;5.60;;;;;23.90;100766.00;;;;10111882;28;20739;-77
2023/08/24 12:01:46;;;;;;;8.98;5.82;;;;;23.80;100772.00;;;;10108934;28;20270;-78
2023/08/24 12:06:47;;;;;;;8.23;5.63;;;;;23.50;100770.00;;;;10133572;28;20326;-78
2023/08/24 12:11:49;;;;;;;6.53;5.88;;;;;23.10;100761.00;;;;10113591;28;20254;-77
2023/08/24 12:16:53;;;;;;;12.18;5.32;;;;;22.70;100771.00;;;;10125188;28;20253;-78
2023/08/24 12:21:54;;;;;;;9.23;5.07;;;;;22.30;100739.00;;;;10127558;28;20210;-77
2023/08/24 12:26:57;;;;;;;9.38;5.97;;;;;21.90;100734.00;;;;10090676;28;20221;-78
2023/08/24 12:31:59;;;;;;;8.43;5.40;;;;;21.70;100741.00;;;;10126116;28;21833;-78
2023/08/24 12:37:00;;;;;;;9.55;5.43;;;;;21.40;100727.00;;;;10101487;28;20237;-77
2023/08/24 12:42:02;;;;;;;7.85;5.72;;;;;21.20;100715.00;;;;10097536;28;20198;-78
2023/08/24 12:47:03;;;;;;;6.35;5.70;;;;;21.10;100703.00;;;;10125602;28;20997;-77
2023/08/24 12:52:05;;;;;;;10.90;6.18;;;;;21.00;100710.00;;;;10115664;28;20217;-77
2023/08/24 12:57:06;;;;;;;7.25;5.88;;;;;20.90;100687.00;;;;10106764;28;20237;-78
2023/08/24 13:02:07;;;;;;;6.60;5.68;;;;;20.80;100676.00;;;;10092291;28;20249;-79
2023/08/24 13:07:09;;;;;;;7.00;4.82;;;;;20.70;100660.00;;;;10092089;28;20233;-77
2023/08/24 13:12:10;;;;;;;4.75;4.13;;;;;20.70;100660.00;;;;10102974;28;20259;-77
2023/08/24 13:17:11;;;;;;;5.22;4.72;;;;;20.60;100632.00;;;;10090234;28;20313;-77
2023/08/24 13:22:12;;;;;;;7.82;4.35;;;;;20.60;100638.00;;;;10105585;28;21123;-77
2023/08/24 13:27:14;;;;;;;4.85;3.90;;;;;20.60;100645.00;;;;10129274;28;20253;-77
2023/08/24 13:32:15;;;;;;;9.60;4.40;;;;;20.60;100636.00;;;;10127873;28;21643;-77
2023/08/24 13:37:18;;;;;;;6.93;3.75;;;;;20.70;100619.00;;;;10105938;28;20347;-77
2023/08/24 13:42:19;;;;;;;4.95;3.88;;;;;20.80;100606.00;;;;10106294;28;21075;-77
2023/08/24 13:47:21;;;;;;;7.15;3.47;;;;;21.10;100590.00;;;;10123431;28;20299;-76
2023/08/24 13:52:23;;;;;;;6.63;3.75;;;;;21.40;100573.00;;;;10083970;28;21608;-76
2023/08/24 13:57:24;;;;;;;4.53;3.08;;;;;21.60;100556.00;;;;10052726;28;20937;-75
2023/08/24 14:02:26;;;;;;;5.30;3.47;;;;;21.70;100571.00;;;;10088237;28;20211;-76
2023/08/24 14:07:27;;;;;;;6.97;3.30;;;;;21.90;100577.00;;;;10099521;28;20202;-75
2023/08/24 14:12:30;;;;;;;5.97;3.05;;;;;22.20;100562.00;;;;10126047;28;20214;-76
2023/08/24 14:17:31;;;;;;;5.82;3.33;;;;;22.50;100587.00;;;;10099191;28;20926;-76
2023/08/24 14:22:33;;;;;;;5.68;2.95;;;;;22.70;100611.00;;;;10059727;28;20206;-76
2023/08/24 14:27:34;;;;;;;3.95;2.50;;;;;22.50;100642.00;;;;10068975;28;20293;-75
2023/08/24 14:32:35;;;;;;;7.72;2.70;;;;;22.70;100633.00;;;;10085960;28;20206;-76
2023/08/24 14:37:38;;;;;;;4.00;2.80;;;;;23.00;100618.00;;;;10069381;28;20224;-75
2023/08/24 14:42:40;;;;;;;4.22;2.47;;;;;23.40;100612.00;;;;10063711;28;20462;-75
2023/08/24 14:47:41;;;;;;;4.10;2.10;;;;;23.50;100612.00;;;;10103766;28;20214;-75
2023/08/24 14:52:43;;;;;;;4.10;2.22;;;;;23.40;100622.00;;;;10085997;28;20293;-76
2023/08/24 14:57:44;;;;;;;4.60;2.38;;;;;23.50;100615.00;;;;10083775;28;20237;-76
2023/08/24 15:02:46;;;;;;;7.75;2.50;;;;;23.60;100592.00;;;;10078297;28;20213;-75
2023/08/24 15:07:47;;;;;;;3.67;2.10;;;;;23.50;100579.00;;;;10066651;28;20245;-75
2023/08/24 15:12:56;;;;;;;3.45;2.40;;;;;23.50;100572.00;;;;10061307;28;21065;-76
2023/08/24 15:18:01;;;;;;;3.53;1.85;;;;;23.50;100568.00;;;;10066287;28;20226;-76
2023/08/24 15:23:02;;;;;;;3.90;1.83;;;;;23.50;100540.00;;;;10085151;28;20305;-76
2023/08/24 15:28:06;;;;;;;4.18;1.85;;;;;23.50;100524.00;;;;10062018;28;20820;-76
2023/08/24 15:33:09;;;;;;;6.50;2.28;;;;;23.50;100509.00;;;;10055883;28;20536;-77
2023/08/24 15:38:11;;;;;;;4.53;1.75;;;;;23.70;100512.00;;;;10036267;28;20302;-76
2023/08/24 15:43:15;;;;;;;4.90;2.20;;;;;24.00;100512.00;;;;10064128;28;20589;-76
2023/08/24 15:48:16;;;;;;;4.88;1.60;;;;;24.40;100520.00;;;;10068778;28;20249;-77
2023/08/24 15:53:17;;;;;;;2.97;1.48;;;;;24.80;100531.00;;;;10072485;28;20206;-76
2023/08/24 15:58:18;;;;;;;4.95;1.95;;;;;24.80;100525.00;;;;10087186;28;21185;-77
2023/08/24 16:03:20;;;;;;;4.60;1.52;;;;;24.70;100514.00;;;;10082704;28;20318;-76
2023/08/24 16:08:21;;;;;;;2.47;1.58;;;;;24.80;100497.00;;;;10085867;28;20371;-76
2023/08/24 16:13:24;;;;;;;1.45;1.30;;;;;25.00;100474.00;;;;10086523;28;20205;-76
2023/08/24 16:18:27;;;;;;;3.67;1.85;;;;;25.00;100467.00;;;;10068384;28;20222;-76
2023/08/24 16:23:29;;;;;;;3.65;1.40;;;;;24.70;100488.00;;;;10077840;28;21691;-76
2023/08/24 16:28:34;;;;;;;3.28;1.75;;;;;24.30;100483.00;;;;10065933;28;20893;-77
2023/08/24 16:33:35;;;;;;;2.45;1.27;;;;;24.00;100476.00;;;;10084012;28;20218;-77
2023/08/24 16:38:36;;;;;;;2.17;1.67;;;;;23.80;100469.00;;;;10088507;28;20753;-77
2023/08/24 16:43:38;;;;;;;4.13;1.60;;;;;23.50;100456.00;;;;10075696;28;20218;-78
2023/08/24 16:48:40;;;;;;;1.80;1.20;;;;;23.30;100451.00;;;;10095414;28;20565;-77
2023/08/24 16:53:44;;;;;;;2.67;1.23;;;;;23.30;100459.00;;;;10098238;28;20240;-77
2023/08/24 16:58:47;;;;;;;3.00;1.75;;;;;23.40;100459.00;;;;10074687;28;20218;-77
2023/08/24 17:03:49;;;;;;;3.13;2.05;;;;;23.40;100454.00;;;;10100480;28;20269;-78
2023/08/24 17:08:50;;;;;;;3.85;1.95;;;;;23.40;100457.00;;;;10096509;28;20233;-77
2023/08/24 17:13:53;;;;;;;2.60;1.55;;;;;23.30;100453.00;;;;10095339;28;20214;-77
2023/08/24 17:18:55;;;;;;;6.40;1.85;;;;;23.20;100447.00;;;;10071075;28;20226;-77
2023/08/24 17:23:56;;;;;;;4.05;1.75;;;;;23.10;100457.00;;;;10099194;28;20621;-77
2023/08/24 17:29:06;;;;;;;1.80;1.40;;;;;23.10;100452.00;;;;10063128;28;20218;-78
2023/08/24 17:34:08;;;;;;;3.95;1.73;;;;;23.00;100468.00;;;;10069699;28;20309;-77
2023/08/24 17:39:09;;;;;;;2.78;1.80;;;;;22.80;100487.00;;;;10071793;28;20957;-77
2023/08/24 17:44:10;;;;;;;3.92;2.35;;;;;22.60;100492.00;;;;10088842;28;20211;-78
2023/08/24 17:49:11;;;;;;;6.40;1.90;;;;;22.50;100507.00;;;;10110150;28;20297;-77
2023/08/24 17:54:13;;;;;;;3.22;2.03;;;;;22.30;100498.00;;;;10114983;28;20957;-78
2023/08/24 17:59:14;;;;;;;3.10;1.92;;;;;22.20;100498.00;;;;10089268;28;20232;-78
2023/08/24 18:04:16;;;;;;;4.25;2.08;;;;;22.00;100506.00;;;;10110361;28;20222;-78
2023/08/24 18:09:17;;;;;;;5.50;2.42;;;;;22.00;100505.00;;;;10095485;28;20205;-77
2023/08/24 18:14:19;;;;;;;3.58;2.10;;;;;21.90;100498.00;;;;10070876;28;20258;-78
2023/08/24 18:19:20;;;;;;;4.28;2.25;;;;;21.70;100492.00;;;;10077731;28;20406;-77
2023/08/24 18:24:25;;;;;;;4.10;2.65;;;;;21.50;100497.00;;;;10091810;28;20760;-76
2023/08/24 18:29:27;;;;;;;5.43;2.28;;;;;21.30;100528.00;;;;10095684;28;20313;-77
2023/08/24 18:34:28;;;;;;;9.48;2.83;;;;;21.20;100521.00;;;;10094314;28;20210;-78
2023/08/24 18:39:32;;;;;;;5.93;2.60;;;;;21.10;100526.00;;;;10088962;28;20222;-78
2023/08/24 18:44:34;;;;;;;7.38;2.50;;;;;21.00;100506.00;;;;10109773;28;20352;-77
2023/08/24 18:49:35;;;;;;;4.38;2.90;;;;;20.90;100509.00;;;;10093115;28;20218;-78
2023/08/24 18:54:37;;;;;;;3.85;2.80;;;;;20.90;100480.00;;;;10071854;28;20229;-77
2023/08/24 18:59:38;;;;;;;5.72;2.53;;;;;20.80;100483.00;;;;10093960;28;20230;-77
2023/08/24 19:04:52;;;;;;;4.85;2.95;;;;;20.80;100475.00;;;;10071622;28;20214;-77
2023/08/24 19:09:53;;;;;;;5.60;2.78;;;;;20.60;100484.00;;;;10070726;28;20312;-78
2023/08/24 19:14:57;;;;;;;4.95;2.80;;;;;20.40;100476.00;;;;10091474;28;20957;-77
2023/08/24 19:20:01;;;;;;;4.07;3.10;;;;;20.30;100475.00;;;;10092882;28;20261;-77
2023/08/24 19:25:09;;;;;;;7.05;3.30;;;;;20.20;100473.00;;;;10097010;28;20290;-78
2023/08/24 19:30:10;;;;;;;7.22;3.42;;;;;20.10;100471.00;;;;10086960;28;20215;-78
2023/08/24 19:35:12;;;;;;;4.50;3.38;;;;;20.00;100496.00;;;;10103424;28;20210;-77
2023/08/24 19:40:13;;;;;;;5.93;3.28;;;;;19.90;100476.00;;;;10123060;28;21875;-78
2023/08/24 19:45:17;;;;;;;5.35;3.35;;;;;19.80;100476.00;;;;10105550;28;20299;-76
2023/08/24 19:50:18;;;;;;;6.18;3.42;;;;;19.70;100469.00;;;;10105215;28;20934;-77
2023/08/24 19:55:19;;;;;;;5.68;2.85;;;;;19.80;100470.00;;;;10123441;28;20221;-77
2023/08/24 20:00:21;;;;;;;5.10;3.10;;;;;19.70;100482.00;;;;10123965;28;20257;-78
2023/08/24 20:05:23;;;;;;;4.60;3.03;;;;;19.60;100476.00;;;;10101080;28;20524;-76
2023/08/24 20:10:25;;;;;;;7.97;3.17;;;;;19.50;100482.00;;;;10063910;28;20202;-78
2023/08/24 20:15:26;;;;;;;5.20;3.38;;;;;19.50;100477.00;;;;10099812;28;20616;-77
2023/08/24 20:20:30;;;;;;;4.60;3.42;;;;;19.40;100482.00;;;;10059589;28;20236;-77
2023/08/24 20:25:31;;;;;;;7.15;3.80;;;;;19.40;100476.00;;;;10096810;28;20672;-77
2023/08/24 20:30:32;;;;;;;5.07;3.40;;;;;19.40;100499.00;;;;10090006;28;20307;-78
2023/08/24 20:35:34;;;;;;;7.70;4.07;;;;;19.50;100535.00;;;;10087691;28;20349;-78
2023/08/24 20:40:35;;;;;;;6.25;4.20;;;;;19.50;100543.00;;;;10067985;28;20245;-77
2023/08/24 20:45:36;;;;;;;7.63;4.10;;;;;19.60;100576.00;;;;10094629;28;20210;-77
2023/08/24 20:50:38;;;;;;;4.95;4.38;;;;;19.70;100558.00;;;;10090257;28;21185;-77
2023/08/24 20:55:39;;;;;;;8.77;4.47;;;;;19.90;100549.00;;;;10074115;28;21421;-77
2023/08/24 21:00:41;;;;;;;5.65;3.85;;;;;19.90;100586.00;;;;10066446;28;20226;-78
2023/08/24 21:05:42;;;;;;;8.50;4.30;;;;;19.90;100571.00;;;;10067229;28;20206;-78
2023/08/24 21:10:44;;;;;;;6.60;3.63;;;;;19.90;100576.00;;;;10077520;28;20576;-77
2023/08/24 21:15:45;;;;;;;7.53;4.05;;;;;20.00;100587.00;;;;10095345;28;20537;-78
2023/08/24 21:20:47;;;;;;;7.82;4.22;;;;;20.00;100598.00;;;;10070514;28;21294;-77
2023/08/24 21:25:48;;;;;;;5.55;4.28;;;;;19.90;100545.00;;;;10087563;28;20210;-77
2023/08/24 21:30:49;;;;;;;9.27;4.75;;;;;19.90;100505.00;;;;10073227;28;20805;-77
2023/08/24 21:35:51;;;;;;;8.77;4.45;;;;;19.90;100513.00;;;;10089607;28;20206;-78
2023/08/24 21:40:53;;;;;;;5.53;3.92;;;;;19.80;100500.00;;;;10064859;28;20226;-78
2023/08/24 21:45:55;;;;;;;8.20;4.88;;;;;19.60;100476.00;;;;10074944;28;20930;-77
2023/08/24 21:50:59;;;;;;;8.93;5.15;;;;;19.50;100478.00;;;;10096972;28;20217;-78
2023/08/24 21:56:00;;;;;;;8.32;5.30;;;;;19.50;100473.00;;;;10058744;28;20591;-78
2023/08/24 22:01:04;;;;;;;5.68;5.10;;;;;19.40;100457.00;;;;10073367;28;20932;-78
2023/08/24 22:06:07;;;;;;;7.80;6.18;;;;;19.40;100446.00;;;;10109641;28;20211;-77
2023/08/24 22:11:09;;;;;;;9.07;6.18;;;;;19.40;100427.00;;;;10094019;28;20210;-77
2023/08/24 22:16:10;;;;;;;9.02;6.25;;;;;19.40;100436.00;;;;10077537;28;21769;-78
2023/08/24 22:21:11;;;;;;;11.45;6.47;;;;;19.40;100448.00;;;;10092964;28;20298;-77
2023/08/24 22:26:12;;;;;;;10.13;6.25;;;;;19.40;100440.00;;;;10096308;28;20289;-77
2023/08/24 22:31:14;;;;;;;6.20;5.63;;;;;19.30;100443.00;;;;10073720;28;21914;-77
2023/08/24 22:36:16;;;;;;;9.95;6.45;;;;;19.20;100436.00;;;;10070578;28;20241;-78
2023/08/24 22:41:17;;;;;;;8.70;6.32;;;;;19.20;100430.00;;;;10045696;28;20480;-77
2023/08/24 22:46:18;;;;;;;7.63;5.90;;;;;19.20;100435.00;;;;10090464;28;20633;-78
2023/08/24 22:51:20;;;;;;;7.72;5.57;;;;;19.20;100429.00;;;;10066468;28;20202;-78
2023/08/24 22:56:21;;;;;;;8.63;6.35;;;;;19.10;100437.00;;;;10088306;28;20925;-78
2023/08/24 23:01:23;;;;;;;9.25;6.22;;;;;19.00;100428.00;;;;10066320;28;20264;-78
2023/08/24 23:06:43;;;;;;;9.45;5.80;;;;;19.10;100439.00;;;;10066635;28;20222;-78
2023/08/24 23:11:45;;;;;;;10.20;6.47;;;;;19.10;100429.00;;;;10087234;28;20275;-77
2023/08/24 23:16:47;;;;;;;8.40;5.80;;;;;19.00;100426.00;;;;10061638;28;20397;-77
2023/08/24 23:21:48;;;;;;;9.20;6.18;;;;;19.00;100411.00;;;;10085431;28;20258;-77
2023/08/24 23:26:49;;;;;;;7.78;5.65;;;;;19.00;100402.00;;;;10093208;28;21613;-77
2023/08/24 23:31:51;;;;;;;8.73;6.10;;;;;19.00;100398.00;;;;10094122;28;20230;-78
2023/08/24 23:36:52;;;;;;;11.20;6.20;;;;;18.90;100401.00;;;;10072429;28;20213;-77
2023/08/24 23:41:54;;;;;;;10.38;6.35;;;;;18.90;100393.00;;;;10081732;28;20701;-78
2023/08/24 23:46:55;;;;;;;7.68;6.65;;;;;18.80;100383.00;;;;10066658;28;20220;-77
2023/08/24 23:51:57;;;;;;;8.23;6.30;;;;;18.80;100384.00;;;;10095065;28;20218;-77
2023/08/24 23:56:59;;;;;;;14.73;6.45;;;;;18.70;100390.00;;;;10088280;28;20979;-78
